»·PEaware :: N650CS KEWR-KJFK

N650CS :: KEWR-KJFK

FLIGHT INFORMATION

Flight Status: Arrived
Operator: Privately registered:
United States
More flights under this callsign
Pilot: Chris S. (2433)
Aircraft: CANADAIR CL-600 CHALLENGER
(CL60)
More flights by this aircraft type
Origin: KEWR Newark Intl
United States
Destination: KJFK Kennedy Intl
United States
More flights between these airports :: More routes between these airports
Route: EWR4 BREZY V39 CMK V374 DENNA BDR V44 DPK
File this flight plan on PilotEdge
Remarks:
Altitude:
(Current/Filed)
7,000ft
Speed:
(Current/Filed)
250kts
Departed: 15-Nov-22 11:57 AM
Arrived: 15-Nov-22 01:20 PM
Distance/Time
Traveled:
18nm/1:22
Distance/Time
To Go:
Arrived

Flight Plot

Page will automatically refresh every two minutes.

Flight plan parsing failed; only flown route is shown


Map Options




Map Legend


Flown Route
Filed Route
Departure Airport
Arrival Airport
Navaid (VOR, NDB)
Fix

Horizontal Profiles

Position Reports

Time Latitude Longitude Heading Altitude Ground
Speed
15-Nov-22 11:48 40.675200 -74.178198 257 14ft 0kts
15-Nov-22 11:49 40.675200 -74.178198 257 14ft 0kts
15-Nov-22 11:50 40.675200 -74.178198 257 14ft 0kts
15-Nov-22 11:51 40.675200 -74.178198 257 14ft 0kts
15-Nov-22 11:52 40.675200 -74.178198 257 14ft 0kts
15-Nov-22 11:53 40.675200 -74.178198 257 14ft 0kts
15-Nov-22 11:54 40.675200 -74.178198 257 14ft 0kts
15-Nov-22 11:55 40.675519 -74.179306 334 14ft 6kts
15-Nov-22 11:56 40.699659 -74.161666 44 1540ft 198kts
15-Nov-22 11:57 40.742125 -74.106315 48 3786ft 225kts
15-Nov-22 11:58 40.792602 -74.046611 14 5813ft 267kts
15-Nov-22 12:24 40.678832 -74.181532 92 14ft 0kts
15-Nov-22 12:25 40.678832 -74.181532 92 14ft 0kts
15-Nov-22 12:26 40.678832 -74.181532 92 14ft 0kts
15-Nov-22 12:27 40.678820 -74.181302 94 14ft 10kts
15-Nov-22 12:28 40.676678 -74.181272 168 14ft 6kts
15-Nov-22 12:29 40.676021 -74.180467 129 14ft 0kts
15-Nov-22 12:30 40.676021 -74.180468 129 14ft 0kts
15-Nov-22 12:31 40.675995 -74.180427 130 14ft 5kts
15-Nov-22 12:32 40.691518 -74.169060 29 481ft 196kts
15-Nov-22 12:33 40.745368 -74.137652 344 2919ft 247kts
15-Nov-22 12:34 40.774839 -74.213690 280 2948ft 246kts
15-Nov-22 12:35 40.820626 -74.262741 9 4570ft 265kts
15-Nov-22 12:36 40.894466 -74.239199 13 7495ft 282kts
15-Nov-22 12:37 40.972852 -74.208626 13 10370ft 307kts
15-Nov-22 12:38 41.055858 -74.175445 12 10819ft 309kts
15-Nov-22 12:39 41.138780 -74.141306 23 10814ft 314kts
15-Nov-22 12:40 41.178885 -74.041722 77 10815ft 315kts
15-Nov-22 12:41 41.203945 -73.927277 76 10819ft 326kts
15-Nov-22 12:42 41.229397 -73.811147 76 10851ft 325kts
15-Nov-22 12:43 41.254527 -73.696249 76 10860ft 323kts
15-Nov-22 12:44 41.274892 -73.579757 96 10858ft 317kts
15-Nov-22 12:45 41.264815 -73.463779 103 11053ft 314kts
15-Nov-22 12:46 41.247449 -73.350037 122 11861ft 307kts
15-Nov-22 12:47 41.208494 -73.248832 124 11862ft 298kts
15-Nov-22 12:48 41.171892 -73.154094 125 11873ft 285kts
15-Nov-22 12:49 41.155535 -73.051841 81 11888ft 308kts
15-Nov-22 12:50 41.176874 -72.942623 61 11867ft 311kts
15-Nov-22 12:51 41.249587 -72.919258 316 11873ft 277kts
15-Nov-22 12:52 41.250029 -72.996611 217 11889ft 236kts
15-Nov-22 12:53 41.197061 -73.048632 223 11880ft 234kts
15-Nov-22 12:54 41.163328 -73.121350 250 11877ft 237kts
15-Nov-22 12:55 41.193573 -73.196025 338 11878ft 285kts
15-Nov-22 12:56 41.251022 -73.136577 83 11887ft 302kts
15-Nov-22 12:57 41.271180 -73.026993 80 11868ft 306kts
15-Nov-22 12:58 41.288307 -72.916752 104 11864ft 297kts
15-Nov-22 12:59 41.234182 -72.868604 207 11887ft 277kts
15-Nov-22 13:00 41.211480 -72.968294 262 11374ft 275kts
15-Nov-22 13:01 41.180204 -73.045344 203 10895ft 234kts
15-Nov-22 13:02 41.118317 -73.075287 209 10891ft 237kts
15-Nov-22 13:03 41.059029 -73.116064 210 9917ft 241kts
15-Nov-22 13:04 40.999996 -73.157636 211 8318ft 238kts
15-Nov-22 13:05 40.943228 -73.197692 210 6760ft 221kts
15-Nov-22 13:06 40.902889 -73.242058 248 5982ft 166kts
15-Nov-22 13:07 40.887747 -73.299005 248 5917ft 164kts
15-Nov-22 13:08 40.873154 -73.354250 248 5410ft 154kts
15-Nov-22 13:09 40.854805 -73.404250 239 4444ft 147kts
15-Nov-22 13:10 40.836357 -73.453623 238 3507ft 152kts
15-Nov-22 13:11 40.816942 -73.504466 237 2983ft 156kts
15-Nov-22 13:12 40.795093 -73.554004 235 2980ft 155kts
15-Nov-22 13:13 40.773083 -73.602927 234 2972ft 156kts
15-Nov-22 13:14 40.746994 -73.646470 211 2586ft 152kts
15-Nov-22 13:15 40.721101 -73.690700 244 2021ft 160kts
15-Nov-22 13:16 40.693874 -73.730158 207 1584ft 137kts
15-Nov-22 13:17 40.662654 -73.753940 208 539ft 129kts
15-Nov-22 13:18 40.633310 -73.776775 209 11ft 86kts
15-Nov-22 13:19 40.626985 -73.783609 27 8ft 13kts
15-Nov-22 13:20 40.631763 -73.780137 1 11ft 17kts
15-Nov-22 13:21 40.632768 -73.779956 15 11ft 0kts
15-Nov-22 13:22 40.632768 -73.779956 15 11ft 0kts
15-Nov-22 13:23 40.633893 -73.779893 300 11ft 13kts

Navigation Log

Ident Type
Flight plan parsing failed, navigation log unavailable